sensor_id;sensor_type;location;lat;lon;timestamp;pressure;altitude;pressure_sealevel;temperature;humidity
84145;BME280;74264;48.988;12.040;2024-03-23T00:53:27;97207.44;;;6.68;95.65
84145;BME280;74264;48.988;12.040;2024-03-23T00:55:52;97206.88;;;6.49;95.07
84145;BME280;74264;48.988;12.040;2024-03-23T00:58:18;97207.19;;;6.38;95.09
84145;BME280;74264;48.988;12.040;2024-03-23T01:00:43;97198.91;;;6.25;94.91
84145;BME280;74264;48.988;12.040;2024-03-23T01:03:09;97189.81;;;6.11;94.62
84145;BME280;74264;48.988;12.040;2024-03-23T01:05:35;97184.66;;;6.01;94.91
84145;BME280;74264;48.988;12.040;2024-03-23T01:08:00;97186.00;;;6.06;95.76
84145;BME280;74264;48.988;12.040;2024-03-23T01:10:26;97195.06;;;6.11;95.76
84145;BME280;74264;48.988;12.040;2024-03-23T01:12:51;97181.25;;;6.09;95.48
84145;BME280;74264;48.988;12.040;2024-03-23T01:15:17;97186.84;;;6.06;95.15
84145;BME280;74264;48.988;12.040;2024-03-23T01:17:42;97181.03;;;5.94;94.80
84145;BME280;74264;48.988;12.040;2024-03-23T01:20:08;97173.56;;;5.82;94.31
84145;BME280;74264;48.988;12.040;2024-03-23T01:22:33;97182.81;;;5.86;95.51
84145;BME280;74264;48.988;12.040;2024-03-23T01:24:59;97177.56;;;5.86;95.47
84145;BME280;74264;48.988;12.040;2024-03-23T01:27:24;97181.66;;;5.88;95.49
84145;BME280;74264;48.988;12.040;2024-03-23T01:29:50;97159.84;;;5.70;95.17
84145;BME280;74264;48.988;12.040;2024-03-23T01:32:18;97155.59;;;5.69;95.68
84145;BME280;74264;48.988;12.040;2024-03-23T01:34:44;97154.94;;;5.67;95.59
84145;BME280;74264;48.988;12.040;2024-03-23T01:37:09;97156.28;;;5.79;96.47
84145;BME280;74264;48.988;12.040;2024-03-23T01:39:35;97148.56;;;6.03;97.43
84145;BME280;74264;48.988;12.040;2024-03-23T01:42:01;97152.34;;;6.01;97.46
84145;BME280;74264;48.988;12.040;2024-03-23T01:44:26;97140.00;;;6.01;97.41
84145;BME280;74264;48.988;12.040;2024-03-23T01:46:52;97140.16;;;6.00;97.00
84145;BME280;74264;48.988;12.040;2024-03-23T01:49:17;97128.81;;;5.99;97.59
84145;BME280;74264;48.988;12.040;2024-03-23T01:51:44;97133.56;;;5.96;97.28
84145;BME280;74264;48.988;12.040;2024-03-23T01:54:10;97126.84;;;5.93;97.22
84145;BME280;74264;48.988;12.040;2024-03-23T01:56:36;97112.78;;;5.77;96.50
84145;BME280;74264;48.988;12.040;2024-03-23T01:59:02;97115.63;;;5.83;97.10
84145;BME280;74264;48.988;12.040;2024-03-23T02:01:28;97116.50;;;5.92;97.33
84145;BME280;74264;48.988;12.040;2024-03-23T02:03:54;97110.97;;;5.77;96.65
84145;BME280;74264;48.988;12.040;2024-03-23T02:06:19;97104.97;;;5.59;96.15
84145;BME280;74264;48.988;12.040;2024-03-23T02:08:45;97093.78;;;5.49;95.89
84145;BME280;74264;48.988;12.040;2024-03-23T02:11:11;97095.22;;;5.44;96.08
84145;BME280;74264;48.988;12.040;2024-03-23T02:13:36;97090.75;;;5.36;96.44
84145;BME280;74264;48.988;12.040;2024-03-23T02:16:02;97092.72;;;5.34;96.26
84145;BME280;74264;48.988;12.040;2024-03-23T02:18:27;97091.69;;;5.27;96.75
84145;BME280;74264;48.988;12.040;2024-03-23T02:20:53;97087.56;;;5.25;96.46
84145;BME280;74264;48.988;12.040;2024-03-23T02:23:18;97087.00;;;5.13;95.72
84145;BME280;74264;48.988;12.040;2024-03-23T02:25:44;97084.78;;;5.00;95.37
84145;BME280;74264;48.988;12.040;2024-03-23T02:28:10;97081.03;;;5.03;96.00
84145;BME280;74264;48.988;12.040;2024-03-23T02:30:36;97077.91;;;4.99;96.25
84145;BME280;74264;48.988;12.040;2024-03-23T02:33:02;97069.66;;;4.94;96.17
84145;BME280;74264;48.988;12.040;2024-03-23T02:35:27;97069.63;;;4.86;95.93
84145;BME280;74264;48.988;12.040;2024-03-23T02:37:53;97060.75;;;4.87;96.41
84145;BME280;74264;48.988;12.040;2024-03-23T02:40:19;97062.16;;;4.99;97.38
84145;BME280;74264;48.988;12.040;2024-03-23T02:42:45;97063.75;;;5.18;97.67
84145;BME280;74264;48.988;12.040;2024-03-23T02:45:11;97051.28;;;4.94;97.72
84145;BME280;74264;48.988;12.040;2024-03-23T02:47:36;97056.50;;;4.86;96.95
84145;BME280;74264;48.988;12.040;2024-03-23T02:50:02;97053.50;;;4.81;97.06
84145;BME280;74264;48.988;12.040;2024-03-23T02:52:28;97050.44;;;4.86;96.94
84145;BME280;74264;48.988;12.040;2024-03-23T02:54:54;97045.53;;;4.91;97.43
84145;BME280;74264;48.988;12.040;2024-03-23T02:57:19;97045.03;;;4.87;97.54
84145;BME280;74264;48.988;12.040;2024-03-23T02:59:45;97051.25;;;4.86;97.70
84145;BME280;74264;48.988;12.040;2024-03-23T03:02:11;97041.97;;;5.00;97.78
84145;BME280;74264;48.988;12.040;2024-03-23T03:04:36;97052.19;;;5.03;98.24
84145;BME280;74264;48.988;12.040;2024-03-23T03:07:02;97049.06;;;5.07;98.04
84145;BME280;74264;48.988;12.040;2024-03-23T03:09:27;97042.03;;;5.08;98.23
84145;BME280;74264;48.988;12.040;2024-03-23T03:11:53;97032.63;;;4.97;97.91
84145;BME280;74264;48.988;12.040;2024-03-23T03:14:18;97029.34;;;4.95;97.22
84145;BME280;74264;48.988;12.040;2024-03-23T03:16:45;97019.88;;;5.02;97.64
84145;BME280;74264;48.988;12.040;2024-03-23T03:19:10;97024.28;;;5.02;97.77
84145;BME280;74264;48.988;12.040;2024-03-23T03:21:37;97019.66;;;5.30;98.04
84145;BME280;74264;48.988;12.040;2024-03-23T03:24:03;97008.16;;;5.23;98.06
84145;BME280;74264;48.988;12.040;2024-03-23T03:26:29;97008.78;;;5.17;97.59
84145;BME280;74264;48.988;12.040;2024-03-23T03:28:54;96997.09;;;5.11;97.45
84145;BME280;74264;48.988;12.040;2024-03-23T03:31:20;96997.47;;;5.16;97.38
84145;BME280;74264;48.988;12.040;2024-03-23T03:33:46;96995.03;;;5.23;97.20
84145;BME280;74264;48.988;12.040;2024-03-23T03:36:11;97001.00;;;5.41;97.72
84145;BME280;74264;48.988;12.040;2024-03-23T03:38:37;97003.91;;;5.63;97.83
84145;BME280;74264;48.988;12.040;2024-03-23T03:41:04;96997.84;;;5.71;97.91
84145;BME280;74264;48.988;12.040;2024-03-23T03:43:31;96991.47;;;5.81;98.14
84145;BME280;74264;48.988;12.040;2024-03-23T03:45:58;96982.47;;;5.84;98.05
84145;BME280;74264;48.988;12.040;2024-03-23T03:48:24;96975.09;;;5.87;97.80
84145;BME280;74264;48.988;12.040;2024-03-23T03:50:50;96975.56;;;5.83;97.19
84145;BME280;74264;48.988;12.040;2024-03-23T03:53:15;96962.78;;;5.96;97.08
84145;BME280;74264;48.988;12.040;2024-03-23T03:55:41;96964.63;;;6.12;96.96
84145;BME280;74264;48.988;12.040;2024-03-23T03:58:07;96974.47;;;6.26;96.99
84145;BME280;74264;48.988;12.040;2024-03-23T04:00:33;96985.81;;;6.42;97.09
84145;BME280;74264;48.988;12.040;2024-03-23T04:02:59;96971.66;;;6.51;95.73
84145;BME280;74264;48.988;12.040;2024-03-23T04:05:24;96963.28;;;6.56;95.80
84145;BME280;74264;48.988;12.040;2024-03-23T04:07:50;96947.34;;;6.57;95.67
84145;BME280;74264;48.988;12.040;2024-03-23T04:10:15;96947.81;;;6.61;95.30
84145;BME280;74264;48.988;12.040;2024-03-23T04:12:42;96940.09;;;6.59;96.09
84145;BME280;74264;48.988;12.040;2024-03-23T04:15:08;96938.63;;;6.57;95.72
84145;BME280;74264;48.988;12.040;2024-03-23T04:17:33;96930.25;;;6.61;95.59
84145;BME280;74264;48.988;12.040;2024-03-23T04:20:00;96944.34;;;6.68;94.99
84145;BME280;74264;48.988;12.040;2024-03-23T04:22:27;96934.16;;;6.73;94.76
84145;BME280;74264;48.988;12.040;2024-03-23T04:24:56;96936.78;;;6.73;94.48
84145;BME280;74264;48.988;12.040;2024-03-23T04:27:23;96924.81;;;6.63;94.43
84145;BME280;74264;48.988;12.040;2024-03-23T04:29:52;96922.22;;;6.47;94.35
84145;BME280;74264;48.988;12.040;2024-03-23T04:32:18;96921.38;;;6.46;94.67
84145;BME280;74264;48.988;12.040;2024-03-23T04:34:44;96918.75;;;6.46;94.49
84145;BME280;74264;48.988;12.040;2024-03-23T04:37:10;96918.09;;;6.44;94.72
84145;BME280;74264;48.988;12.040;2024-03-23T04:39:36;96908.72;;;6.50;94.72
84145;BME280;74264;48.988;12.040;2024-03-23T04:42:03;96908.84;;;6.64;95.23
84145;BME280;74264;48.988;12.040;2024-03-23T04:44:29;96904.25;;;6.66;94.70
84145;BME280;74264;48.988;12.040;2024-03-23T04:47:00;96897.16;;;6.75;93.63
84145;BME280;74264;48.988;12.040;2024-03-23T04:49:25;96898.91;;;6.90;92.93
84145;BME280;74264;48.988;12.040;2024-03-23T04:51:51;96901.03;;;6.95;93.05
84145;BME280;74264;48.988;12.040;2024-03-23T04:54:17;96898.06;;;6.98;92.48
84145;BME280;74264;48.988;12.040;2024-03-23T04:56:42;96902.34;;;6.99;92.77
84145;BME280;74264;48.988;12.040;2024-03-23T04:59:08;96888.00;;;7.01;92.82
84145;BME280;74264;48.988;12.040;2024-03-23T05:01:34;96884.22;;;7.04;92.52
84145;BME280;74264;48.988;12.040;2024-03-23T05:04:02;96879.63;;;7.06;91.82
84145;BME280;74264;48.988;12.040;2024-03-23T05:06:27;96870.72;;;7.07;91.84
84145;BME280;74264;48.988;12.040;2024-03-23T05:08:54;96869.56;;;7.10;91.54
84145;BME280;74264;48.988;12.040;2024-03-23T05:11:19;96875.31;;;7.13;91.14
84145;BME280;74264;48.988;12.040;2024-03-23T05:13:46;96868.88;;;7.16;91.34
84145;BME280;74264;48.988;12.040;2024-03-23T05:16:11;96871.34;;;7.17;91.42
84145;BME280;74264;48.988;12.040;2024-03-23T05:18:37;96872.00;;;7.19;90.90
84145;BME280;74264;48.988;12.040;2024-03-23T05:21:03;96867.38;;;7.21;90.94
84145;BME280;74264;48.988;12.040;2024-03-23T05:23:29;96860.09;;;7.23;90.65
84145;BME280;74264;48.988;12.040;2024-03-23T05:25:55;96849.25;;;7.26;90.34
84145;BME280;74264;48.988;12.040;2024-03-23T05:28:21;96860.88;;;7.32;89.89
84145;BME280;74264;48.988;12.040;2024-03-23T05:30:51;96863.16;;;7.35;90.01
84145;BME280;74264;48.988;12.040;2024-03-23T05:33:18;96862.00;;;7.37;89.86
84145;BME280;74264;48.988;12.040;2024-03-23T05:35:44;96851.00;;;7.34;90.08
84145;BME280;74264;48.988;12.040;2024-03-23T05:38:10;96839.53;;;7.27;90.51
84145;BME280;74264;48.988;12.040;2024-03-23T05:40:35;96854.34;;;7.20;91.08
84145;BME280;74264;48.988;12.040;2024-03-23T05:43:03;96851.06;;;7.18;90.34
84145;BME280;74264;48.988;12.040;2024-03-23T05:45:29;96844.84;;;7.19;90.39
84145;BME280;74264;48.988;12.040;2024-03-23T05:47:55;96846.53;;;7.12;90.35
84145;BME280;74264;48.988;12.040;2024-03-23T05:50:22;96838.81;;;7.10;90.42
84145;BME280;74264;48.988;12.040;2024-03-23T05:52:49;96838.00;;;7.01;90.62
84145;BME280;74264;48.988;12.040;2024-03-23T05:55:14;96836.59;;;6.91;90.59
84145;BME280;74264;48.988;12.040;2024-03-23T05:57:40;96821.66;;;6.83;90.35
84145;BME280;74264;48.988;12.040;2024-03-23T06:00:06;96822.69;;;6.74;90.69
84145;BME280;74264;48.988;12.040;2024-03-23T06:02:42;96819.75;;;6.69;91.31
84145;BME280;74264;48.988;12.040;2024-03-23T06:05:11;96811.34;;;6.66;90.89
84145;BME280;74264;48.988;12.040;2024-03-23T06:07:37;96814.97;;;6.65;90.92
84145;BME280;74264;48.988;12.040;2024-03-23T06:10:04;96805.59;;;6.62;91.14
84145;BME280;74264;48.988;12.040;2024-03-23T06:12:30;96795.44;;;6.59;91.48
84145;BME280;74264;48.988;12.040;2024-03-23T06:14:55;96792.78;;;6.67;91.55
84145;BME280;74264;48.988;12.040;2024-03-23T06:17:21;96782.59;;;6.64;91.95
84145;BME280;74264;48.988;12.040;2024-03-23T06:19:46;96782.75;;;6.63;91.78
84145;BME280;74264;48.988;12.040;2024-03-23T06:22:12;96772.91;;;6.65;91.70
84145;BME280;74264;48.988;12.040;2024-03-23T06:24:38;96764.50;;;6.69;91.01
84145;BME280;74264;48.988;12.040;2024-03-23T06:27:04;96742.75;;;6.75;91.28
84145;BME280;74264;48.988;12.040;2024-03-23T06:29:29;96753.41;;;6.82;91.51
84145;BME280;74264;48.988;12.040;2024-03-23T06:31:55;96754.34;;;6.89;91.06
84145;BME280;74264;48.988;12.040;2024-03-23T06:34:21;96755.13;;;6.97;91.17
84145;BME280;74264;48.988;12.040;2024-03-23T06:36:48;96757.13;;;7.18;91.08
84145;BME280;74264;48.988;12.040;2024-03-23T06:39:15;96751.41;;;7.60;89.72
84145;BME280;74264;48.988;12.040;2024-03-23T06:41:52;96739.91;;;7.90;88.12
84145;BME280;74264;48.988;12.040;2024-03-23T06:44:18;96749.72;;;8.11;86.94
84145;BME280;74264;48.988;12.040;2024-03-23T06:46:44;96737.50;;;8.32;84.53
84145;BME280;74264;48.988;12.040;2024-03-23T06:49:11;96744.16;;;8.43;84.09
84145;BME280;74264;48.988;12.040;2024-03-23T06:51:37;96747.47;;;8.66;84.54
84145;BME280;74264;48.988;12.040;2024-03-23T06:54:04;96750.34;;;8.85;83.99
84145;BME280;74264;48.988;12.040;2024-03-23T06:56:30;96743.47;;;9.06;81.72
84145;BME280;74264;48.988;12.040;2024-03-23T06:58:57;96752.53;;;9.18;81.22
84145;BME280;74264;48.988;12.040;2024-03-23T07:01:23;96762.34;;;9.24;84.15
84145;BME280;74264;48.988;12.040;2024-03-23T07:03:48;96759.91;;;9.22;83.80
84145;BME280;74264;48.988;12.040;2024-03-23T07:06:14;96760.25;;;9.19;83.80
84145;BME280;74264;48.988;12.040;2024-03-23T07:08:39;96750.34;;;9.21;84.54
84145;BME280;74264;48.988;12.040;2024-03-23T07:11:05;96756.63;;;9.20;85.12
84145;BME280;74264;48.988;12.040;2024-03-23T07:13:31;96754.25;;;9.25;84.97
84145;BME280;74264;48.988;12.040;2024-03-23T07:15:56;96757.84;;;9.39;84.07
84145;BME280;74264;48.988;12.040;2024-03-23T07:18:23;96756.56;;;9.56;83.58
84145;BME280;74264;48.988;12.040;2024-03-23T07:20:55;96751.97;;;9.64;83.41
84145;BME280;74264;48.988;12.040;2024-03-23T07:23:24;96753.66;;;9.72;84.35
84145;BME280;74264;48.988;12.040;2024-03-23T07:26:00;96760.81;;;9.78;83.01
84145;BME280;74264;48.988;12.040;2024-03-23T07:28:26;96769.97;;;9.75;83.53
84145;BME280;74264;48.988;12.040;2024-03-23T07:31:06;96776.31;;;9.81;82.95
84145;BME280;74264;48.988;12.040;2024-03-23T07:33:35;96776.25;;;9.74;80.22
84145;BME280;74264;48.988;12.040;2024-03-23T07:36:01;96786.81;;;9.74;79.52
84145;BME280;74264;48.988;12.040;2024-03-23T07:38:28;96790.91;;;9.77;79.23
84145;BME280;74264;48.988;12.040;2024-03-23T07:43:29;96805.88;;;9.91;77.64
84145;BME280;74264;48.988;12.040;2024-03-23T07:45:54;96811.75;;;10.35;73.10
84145;BME280;74264;48.988;12.040;2024-03-23T07:48:23;96842.06;;;10.60;71.68
84145;BME280;74264;48.988;12.040;2024-03-23T07:51:07;96857.72;;;10.96;69.41
84145;BME280;74264;48.988;12.040;2024-03-23T07:53:33;96880.03;;;11.08;68.16
84145;BME280;74264;48.988;12.040;2024-03-23T07:56:03;96889.19;;;10.71;71.32
84145;BME280;74264;48.988;12.040;2024-03-23T07:58:29;96899.03;;;10.56;71.16
84145;BME280;74264;48.988;12.040;2024-03-23T08:00:56;96884.63;;;10.10;75.00
84145;BME280;74264;48.988;12.040;2024-03-23T08:03:28;96888.47;;;9.93;75.15
84145;BME280;74264;48.988;12.040;2024-03-23T08:05:53;96898.97;;;9.65;77.00
84145;BME280;74264;48.988;12.040;2024-03-23T08:08:19;96907.38;;;9.54;77.15
84145;BME280;74264;48.988;12.040;2024-03-23T08:10:49;96915.50;;;9.53;76.45
84145;BME280;74264;48.988;12.040;2024-03-23T08:13:15;96906.94;;;9.51;76.45
84145;BME280;74264;48.988;12.040;2024-03-23T08:15:40;96908.31;;;9.47;75.92
84145;BME280;74264;48.988;12.040;2024-03-23T08:18:06;96903.50;;;9.36;77.30
84145;BME280;74264;48.988;12.040;2024-03-23T08:20:32;96917.38;;;9.23;79.68
84145;BME280;74264;48.988;12.040;2024-03-23T08:22:57;96910.38;;;9.16;79.55
84145;BME280;74264;48.988;12.040;2024-03-23T08:25:23;96916.03;;;9.13;79.91
84145;BME280;74264;48.988;12.040;2024-03-23T08:27:48;96905.47;;;9.13;81.37
84145;BME280;74264;48.988;12.040;2024-03-23T08:30:14;96900.97;;;9.13;78.13
84145;BME280;74264;48.988;12.040;2024-03-23T08:32:40;96918.47;;;8.99;79.57
84145;BME280;74264;48.988;12.040;2024-03-23T08:35:06;96926.13;;;8.94;80.29
84145;BME280;74264;48.988;12.040;2024-03-23T08:37:32;96919.19;;;8.93;80.42
84145;BME280;74264;48.988;12.040;2024-03-23T08:39:58;96921.19;;;8.91;82.50
84145;BME280;74264;48.988;12.040;2024-03-23T08:42:23;96923.13;;;8.97;80.46
84145;BME280;74264;48.988;12.040;2024-03-23T08:44:49;96928.13;;;9.07;80.08
84145;BME280;74264;48.988;12.040;2024-03-23T08:47:18;96922.66;;;9.09;80.32
84145;BME280;74264;48.988;12.040;2024-03-23T08:49:44;96932.59;;;9.07;81.40
84145;BME280;74264;48.988;12.040;2024-03-23T08:52:10;96939.16;;;9.11;81.13
84145;BME280;74264;48.988;12.040;2024-03-23T08:54:35;96946.16;;;9.18;79.79
84145;BME280;74264;48.988;12.040;2024-03-23T08:57:01;96941.22;;;9.30;81.10
84145;BME280;74264;48.988;12.040;2024-03-23T08:59:27;96941.69;;;9.48;79.73
84145;BME280;74264;48.988;12.040;2024-03-23T09:01:53;96939.94;;;9.55;77.63
84145;BME280;74264;48.988;12.040;2024-03-23T09:04:19;96937.00;;;9.64;77.90
84145;BME280;74264;48.988;12.040;2024-03-23T09:06:44;96932.13;;;9.82;77.39
84145;BME280;74264;48.988;12.040;2024-03-23T09:09:10;96944.84;;;9.93;76.29
84145;BME280;74264;48.988;12.040;2024-03-23T09:11:36;96940.88;;;10.04;76.15
84145;BME280;74264;48.988;12.040;2024-03-23T09:14:03;96946.72;;;10.14;77.07
84145;BME280;74264;48.988;12.040;2024-03-23T09:16:29;96967.38;;;10.25;74.49
84145;BME280;74264;48.988;12.040;2024-03-23T09:18:54;96976.00;;;10.34;74.64
84145;BME280;74264;48.988;12.040;2024-03-23T09:21:20;96972.41;;;10.41;74.66
84145;BME280;74264;48.988;12.040;2024-03-23T09:23:46;96974.66;;;10.44;73.89
84145;BME280;74264;48.988;12.040;2024-03-23T09:26:12;96975.81;;;10.56;73.86
84145;BME280;74264;48.988;12.040;2024-03-23T09:28:37;96985.88;;;10.67;73.77
84145;BME280;74264;48.988;12.040;2024-03-23T09:31:04;96979.75;;;10.67;71.13
84145;BME280;74264;48.988;12.040;2024-03-23T09:33:30;96973.28;;;10.69;70.65
84145;BME280;74264;48.988;12.040;2024-03-23T09:35:55;96959.94;;;10.84;70.77
84145;BME280;74264;48.988;12.040;2024-03-23T09:38:22;96967.59;;;10.72;68.55
84145;BME280;74264;48.988;12.040;2024-03-23T09:40:49;96958.13;;;10.84;69.49
84145;BME280;74264;48.988;12.040;2024-03-23T09:43:18;96958.44;;;11.03;67.21
84145;BME280;74264;48.988;12.040;2024-03-23T09:45:45;96963.16;;;11.07;66.68
84145;BME280;74264;48.988;12.040;2024-03-23T09:48:11;96972.78;;;11.15;64.77
84145;BME280;74264;48.988;12.040;2024-03-23T09:50:40;96954.94;;;11.30;64.24
84145;BME280;74264;48.988;12.040;2024-03-23T09:53:10;96965.06;;;11.54;65.61
84145;BME280;74264;48.988;12.040;2024-03-23T09:55:42;96969.88;;;11.84;64.51
84145;BME280;74264;48.988;12.040;2024-03-23T09:58:08;96966.84;;;11.87;62.69
84145;BME280;74264;48.988;12.040;2024-03-23T10:00:37;96971.56;;;11.92;60.62
84145;BME280;74264;48.988;12.040;2024-03-23T10:03:04;96969.81;;;12.19;62.00
84145;BME280;74264;48.988;12.040;2024-03-23T10:05:32;96991.00;;;12.12;61.44
84145;BME280;74264;48.988;12.040;2024-03-23T10:08:00;96988.75;;;11.62;59.08
84145;BME280;74264;48.988;12.040;2024-03-23T10:10:26;97008.56;;;11.32;59.95
84145;BME280;74264;48.988;12.040;2024-03-23T10:12:52;97006.06;;;11.24;58.93
84145;BME280;74264;48.988;12.040;2024-03-23T10:15:19;97016.03;;;11.22;60.51
84145;BME280;74264;48.988;12.040;2024-03-23T10:17:46;97036.78;;;10.90;58.93
84145;BME280;74264;48.988;12.040;2024-03-23T10:20:11;97057.00;;;10.49;60.33
84145;BME280;74264;48.988;12.040;2024-03-23T10:22:38;97065.47;;;10.45;60.60
84145;BME280;74264;48.988;12.040;2024-03-23T10:25:08;97089.81;;;10.19;62.20
84145;BME280;74264;48.988;12.040;2024-03-23T10:27:34;97083.63;;;9.97;64.54
84145;BME280;74264;48.988;12.040;2024-03-23T10:30:11;97111.25;;;9.95;66.05
84145;BME280;74264;48.988;12.040;2024-03-23T10:32:38;97116.28;;;9.61;65.49
84145;BME280;74264;48.988;12.040;2024-03-23T10:35:17;97111.78;;;9.47;64.02
84145;BME280;74264;48.988;12.040;2024-03-23T10:37:51;97117.38;;;9.66;64.34
84145;BME280;74264;48.988;12.040;2024-03-23T10:40:17;97112.81;;;10.19;63.07
84145;BME280;74264;48.988;12.040;2024-03-23T10:42:46;97097.94;;;10.18;59.91
84145;BME280;74264;48.988;12.040;2024-03-23T10:45:12;97112.88;;;10.61;59.37
84145;BME280;74264;48.988;12.040;2024-03-23T10:47:38;97113.47;;;10.56;59.03
84145;BME280;74264;48.988;12.040;2024-03-23T10:50:04;97135.78;;;10.03;57.68
84145;BME280;74264;48.988;12.040;2024-03-23T10:52:33;97131.97;;;10.21;57.80
84145;BME280;74264;48.988;12.040;2024-03-23T10:55:00;97137.25;;;10.06;57.57
84145;BME280;74264;48.988;12.040;2024-03-23T10:57:39;97126.94;;;10.11;56.94
84145;BME280;74264;48.988;12.040;2024-03-23T11:00:06;97130.50;;;10.18;56.72
84145;BME280;74264;48.988;12.040;2024-03-23T11:02:32;97136.41;;;9.76;56.93
84145;BME280;74264;48.988;12.040;2024-03-23T11:04:58;97131.06;;;9.84;57.26
84145;BME280;74264;48.988;12.040;2024-03-23T11:09:49;97127.19;;;9.58;58.94
84145;BME280;74264;48.988;12.040;2024-03-23T11:15:05;97114.88;;;9.50;60.36
84145;BME280;74264;48.988;12.040;2024-03-23T11:17:32;97116.41;;;9.30;61.23
84145;BME280;74264;48.988;12.040;2024-03-23T11:20:04;97104.94;;;9.38;61.80
84145;BME280;74264;48.988;12.040;2024-03-23T11:22:47;97103.59;;;9.42;60.24
84145;BME280;74264;48.988;12.040;2024-03-23T11:25:19;97139.22;;;9.09;62.13
84145;BME280;74264;48.988;12.040;2024-03-23T11:27:50;97153.25;;;8.86;61.06
84145;BME280;74264;48.988;12.040;2024-03-23T11:30:24;97148.19;;;9.22;62.17
84145;BME280;74264;48.988;12.040;2024-03-23T11:32:54;97149.13;;;9.29;61.08
84145;BME280;74264;48.988;12.040;2024-03-23T11:35:29;97149.59;;;9.47;59.22
84145;BME280;74264;48.988;12.040;2024-03-23T11:38:14;97173.41;;;9.62;60.30
84145;BME280;74264;48.988;12.040;2024-03-23T11:40:47;97174.72;;;9.66;59.14
84145;BME280;74264;48.988;12.040;2024-03-23T11:43:17;97168.97;;;9.77;58.70
84145;BME280;74264;48.988;12.040;2024-03-23T11:45:51;97190.47;;;9.74;58.09
84145;BME280;74264;48.988;12.040;2024-03-23T11:48:19;97196.09;;;9.56;58.09
84145;BME280;74264;48.988;12.040;2024-03-23T11:50:58;97202.63;;;9.83;58.31
84145;BME280;74264;48.988;12.040;2024-03-23T11:53:24;97205.63;;;9.80;56.22
84145;BME280;74264;48.988;12.040;2024-03-23T11:55:58;97194.38;;;10.15;55.93
84145;BME280;74264;48.988;12.040;2024-03-23T11:58:25;97190.09;;;10.14;55.84
84145;BME280;74264;48.988;12.040;2024-03-23T12:01:03;97179.38;;;10.37;55.59
84145;BME280;74264;48.988;12.040;2024-03-23T12:03:30;97188.25;;;10.44;54.35
84145;BME280;74264;48.988;12.040;2024-03-23T12:05:59;97193.44;;;10.37;53.56
84145;BME280;74264;48.988;12.040;2024-03-23T12:08:30;97199.66;;;10.15;53.49
84145;BME280;74264;48.988;12.040;2024-03-23T12:11:10;97193.31;;;10.01;53.81
84145;BME280;74264;48.988;12.040;2024-03-23T12:13:37;97190.84;;;9.71;55.03
84145;BME280;74264;48.988;12.040;2024-03-23T12:16:27;97187.50;;;9.40;56.18
84145;BME280;74264;48.988;12.040;2024-03-23T12:19:04;97173.00;;;9.36;57.45
84145;BME280;74264;48.988;12.040;2024-03-23T12:21:31;97156.66;;;9.55;56.32
84145;BME280;74264;48.988;12.040;2024-03-23T12:23:56;97150.22;;;9.86;56.51
84145;BME280;74264;48.988;12.040;2024-03-23T12:26:22;97153.13;;;10.06;57.09
84145;BME280;74264;48.988;12.040;2024-03-23T12:28:48;97182.41;;;9.38;56.85
84145;BME280;74264;48.988;12.040;2024-03-23T12:31:14;97186.34;;;9.20;58.03
84145;BME280;74264;48.988;12.040;2024-03-23T12:33:39;97186.34;;;9.42;58.08
84145;BME280;74264;48.988;12.040;2024-03-23T12:36:05;97202.47;;;9.25;55.87
84145;BME280;74264;48.988;12.040;2024-03-23T12:38:31;97203.69;;;8.91;55.45
84145;BME280;74264;48.988;12.040;2024-03-23T12:40:56;97199.84;;;8.79;56.75
84145;BME280;74264;48.988;12.040;2024-03-23T12:43:22;97200.22;;;8.91;56.63
84145;BME280;74264;48.988;12.040;2024-03-23T12:45:48;97200.66;;;9.02;54.84
84145;BME280;74264;48.988;12.040;2024-03-23T12:48:14;97198.50;;;8.83;55.36
84145;BME280;74264;48.988;12.040;2024-03-23T12:50:40;97202.66;;;8.78;56.78
84145;BME280;74264;48.988;12.040;2024-03-23T12:53:05;97208.09;;;8.76;54.76
84145;BME280;74264;48.988;12.040;2024-03-23T12:55:31;97205.97;;;8.72;54.18
84145;BME280;74264;48.988;12.040;2024-03-23T12:57:56;97199.13;;;8.85;55.03
84145;BME280;74264;48.988;12.040;2024-03-23T13:00:22;97213.31;;;8.84;53.74
84145;BME280;74264;48.988;12.040;2024-03-23T13:02:47;97190.44;;;8.77;53.15
84145;BME280;74264;48.988;12.040;2024-03-23T13:05:13;97182.88;;;8.74;52.31
84145;BME280;74264;48.988;12.040;2024-03-23T13:07:39;97175.06;;;8.80;52.25
84145;BME280;74264;48.988;12.040;2024-03-23T13:10:05;97163.59;;;8.96;52.11
84145;BME280;74264;48.988;12.040;2024-03-23T13:12:31;97166.84;;;9.21;52.26
84145;BME280;74264;48.988;12.040;2024-03-23T13:14:59;97173.09;;;9.28;50.62
84145;BME280;74264;48.988;12.040;2024-03-23T13:17:25;97186.88;;;9.52;50.93
84145;BME280;74264;48.988;12.040;2024-03-23T13:19:53;97181.84;;;9.43;49.70
84145;BME280;74264;48.988;12.040;2024-03-23T13:22:18;97183.53;;;9.21;50.24
84145;BME280;74264;48.988;12.040;2024-03-23T13:24:44;97188.56;;;9.08;49.27
84145;BME280;74264;48.988;12.040;2024-03-23T13:27:10;97185.19;;;8.99;49.31
84145;BME280;74264;48.988;12.040;2024-03-23T13:29:36;97199.75;;;8.87;49.08
84145;BME280;74264;48.988;12.040;2024-03-23T13:32:03;97203.88;;;8.90;49.33
84145;BME280;74264;48.988;12.040;2024-03-23T13:34:29;97195.38;;;9.02;49.94
84145;BME280;74264;48.988;12.040;2024-03-23T13:36:55;97186.34;;;8.97;50.53
84145;BME280;74264;48.988;12.040;2024-03-23T13:39:23;97186.16;;;8.98;53.66
84145;BME280;74264;48.988;12.040;2024-03-23T13:41:49;97183.78;;;8.89;50.66
84145;BME280;74264;48.988;12.040;2024-03-23T13:44:14;97191.38;;;8.84;50.18
84145;BME280;74264;48.988;12.040;2024-03-23T13:46:42;97184.00;;;8.79;50.46
84145;BME280;74264;48.988;12.040;2024-03-23T13:49:38;97195.59;;;8.70;50.49
84145;BME280;74264;48.988;12.040;2024-03-23T13:52:06;97206.31;;;8.69;51.07
84145;BME280;74264;48.988;12.040;2024-03-23T13:54:32;97199.75;;;8.65;50.45
84145;BME280;74264;48.988;12.040;2024-03-23T13:56:57;97199.97;;;8.55;49.60